Time;durP1;ratioP1;P1;durP2;ratioP2;P2;SDS_P1;SDS_P2;PMS_P1;PMS_P2;Temp;Humidity;BMP_temperature;BMP_pressure;BME280_temperature;BME280_humidity;BME280_pressure;Samples;Min_cycle;Max_cycle;Signal;HPM_P1;HPM_P2
2023/01/19 00:01:56;;;;;;;13.98;8.45;;;;;;;;;;5070996;28;20220;-65
2023/01/19 00:04:22;;;;;;;11.90;9.10;;;;;;;;;;5065267;28;20224;-65
2023/01/19 00:06:49;;;;;;;11.18;9.27;;;;;;;;;;5065782;28;20205;-65
2023/01/19 00:09:15;;;;;;;9.25;8.02;;;;;;;;;;5073372;28;20208;-65
2023/01/19 00:11:41;;;;;;;11.27;8.45;;;;;;;;;;5071294;28;20208;-65
2023/01/19 00:14:07;;;;;;;12.13;9.15;;;;;;;;;;5070017;28;20213;-65
2023/01/19 00:16:35;;;;;;;9.48;8.48;;;;;;;;;;5071914;28;20208;-66
2023/01/19 00:19:01;;;;;;;11.43;9.85;;;;;;;;;;5073767;28;20429;-66
2023/01/19 00:21:27;;;;;;;10.40;8.95;;;;;;;;;;5073024;28;20208;-65
2023/01/19 00:23:54;;;;;;;11.13;9.45;;;;;;;;;;5069024;28;20516;-65
2023/01/19 00:26:21;;;;;;;11.90;9.98;;;;;;;;;;5069249;28;20403;-65
2023/01/19 00:28:49;;;;;;;13.07;10.07;;;;;;;;;;5077509;28;20217;-65
2023/01/19 00:31:15;;;;;;;11.90;9.55;;;;;;;;;;5069283;28;20292;-65
2023/01/19 00:33:43;;;;;;;12.38;9.73;;;;;;;;;;5071586;28;20284;-65
2023/01/19 00:36:09;;;;;;;12.50;9.45;;;;;;;;;;5066133;28;20197;-65
2023/01/19 00:38:36;;;;;;;13.00;9.50;;;;;;;;;;5070904;28;20201;-65
2023/01/19 00:41:02;;;;;;;11.95;9.02;;;;;;;;;;5072110;28;20196;-65
2023/01/19 00:43:27;;;;;;;11.13;9.07;;;;;;;;;;5071440;28;20212;-65
2023/01/19 00:45:53;;;;;;;10.70;9.35;;;;;;;;;;5069162;28;20244;-65
2023/01/19 00:48:20;;;;;;;13.57;9.98;;;;;;;;;;5069025;28;20215;-65
2023/01/19 00:50:47;;;;;;;10.65;9.30;;;;;;;;;;5069006;28;20398;-66
2023/01/19 00:53:14;;;;;;;13.80;9.88;;;;;;;;;;5068857;28;20233;-66
2023/01/19 00:55:40;;;;;;;14.13;10.30;;;;;;;;;;5071008;28;20204;-66
2023/01/19 00:58:07;;;;;;;11.75;9.68;;;;;;;;;;5072475;28;20200;-66
2023/01/19 01:00:33;;;;;;;10.95;9.32;;;;;;;;;;5070840;28;20231;-66
2023/01/19 01:02:59;;;;;;;11.25;9.02;;;;;;;;;;5068945;28;20205;-65
2023/01/19 01:05:26;;;;;;;10.80;9.35;;;;;;;;;;5068739;28;20224;-65
2023/01/19 01:07:53;;;;;;;12.63;9.25;;;;;;;;;;5072217;28;20526;-65
2023/01/19 01:10:21;;;;;;;15.63;9.07;;;;;;;;;;5071126;28;20200;-65
2023/01/19 01:12:48;;;;;;;11.82;9.15;;;;;;;;;;5068371;28;20396;-65
2023/01/19 01:15:15;;;;;;;10.60;9.00;;;;;;;;;;5068183;28;20431;-65
2023/01/19 01:17:46;;;;;;;11.10;8.77;;;;;;;;;;5071247;28;20207;-65
2023/01/19 01:20:16;;;;;;;11.45;9.10;;;;;;;;;;5073262;28;20215;-65
2023/01/19 01:22:44;;;;;;;11.80;9.52;;;;;;;;;;5035300;28;1027311;-65
2023/01/19 01:25:12;;;;;;;9.63;8.57;;;;;;;;;;5072197;28;20581;-65
2023/01/19 01:27:38;;;;;;;13.73;8.77;;;;;;;;;;5070631;28;20258;-65
2023/01/19 01:30:05;;;;;;;10.88;9.50;;;;;;;;;;5069230;28;20397;-65
2023/01/19 01:32:31;;;;;;;12.45;8.82;;;;;;;;;;5070280;28;20201;-65
2023/01/19 01:34:57;;;;;;;9.88;8.57;;;;;;;;;;5072194;28;20500;-66
2023/01/19 01:37:24;;;;;;;10.35;8.13;;;;;;;;;;5072271;28;20200;-66
2023/01/19 01:39:50;;;;;;;9.35;8.30;;;;;;;;;;5069246;28;20212;-66
2023/01/19 01:42:18;;;;;;;12.63;9.45;;;;;;;;;;5069368;28;20201;-66
2023/01/19 01:44:50;;;;;;;10.82;8.75;;;;;;;;;;5071808;28;20220;-66
2023/01/19 01:47:22;;;;;;;11.57;8.18;;;;;;;;;;5073604;28;20208;-66
2023/01/19 01:49:49;;;;;;;9.30;8.40;;;;;;;;;;5077167;28;20197;-66
2023/01/19 01:52:16;;;;;;;14.32;8.93;;;;;;;;;;5069132;28;20500;-66
2023/01/19 01:54:42;;;;;;;11.95;8.93;;;;;;;;;;5071558;28;20197;-66
2023/01/19 01:57:11;;;;;;;11.18;8.82;;;;;;;;;;5072659;28;20250;-66
2023/01/19 01:59:40;;;;;;;10.55;9.02;;;;;;;;;;5071407;28;20238;-66
2023/01/19 02:04:55;;;;;;;12.90;9.02;;;;;;;;;;5072762;28;20223;-66
2023/01/19 02:15:37;;;;;;;9.82;8.13;;;;;;;;;;5072371;28;20211;-66
2023/01/19 02:18:04;;;;;;;11.43;9.48;;;;;;;;;;5072439;28;20445;-66
2023/01/19 02:20:31;;;;;;;13.10;9.00;;;;;;;;;;5070899;28;20551;-66
2023/01/19 02:23:01;;;;;;;12.27;9.00;;;;;;;;;;5070828;28;20209;-66
2023/01/19 02:25:29;;;;;;;11.85;9.05;;;;;;;;;;5072503;28;20224;-66
2023/01/19 02:27:55;;;;;;;12.52;8.98;;;;;;;;;;5075689;28;20220;-66
2023/01/19 02:30:21;;;;;;;12.70;9.80;;;;;;;;;;5075828;28;20207;-66
2023/01/19 02:32:48;;;;;;;10.98;9.27;;;;;;;;;;5075718;28;20196;-66
2023/01/19 02:38:18;;;;;;;10.52;8.98;;;;;;;;;;5071919;28;20552;-66
2023/01/19 02:40:47;;;;;;;10.48;9.30;;;;;;;;;;5074754;28;20204;-66
2023/01/19 02:43:14;;;;;;;14.82;10.43;;;;;;;;;;5075393;28;20246;-66
2023/01/19 02:45:42;;;;;;;12.32;8.95;;;;;;;;;;5073014;28;20250;-66
2023/01/19 02:48:08;;;;;;;12.77;9.25;;;;;;;;;;5071976;28;20201;-66
2023/01/19 02:50:40;;;;;;;11.88;9.70;;;;;;;;;;5073187;28;20297;-66
2023/01/19 02:53:12;;;;;;;15.63;9.30;;;;;;;;;;5075296;28;20196;-66
2023/01/19 02:55:39;;;;;;;11.38;9.35;;;;;;;;;;5072938;28;20392;-66
2023/01/19 02:58:11;;;;;;;13.13;9.75;;;;;;;;;;5071124;28;20557;-66
2023/01/19 03:00:41;;;;;;;12.30;9.57;;;;;;;;;;5072944;28;20212;-66
2023/01/19 03:03:13;;;;;;;12.43;9.30;;;;;;;;;;5073907;28;20204;-66
2023/01/19 03:05:51;;;;;;;10.40;8.63;;;;;;;;;;5072671;28;20414;-66
2023/01/19 03:08:23;;;;;;;10.05;8.57;;;;;;;;;;5071526;28;20201;-66
2023/01/19 03:10:53;;;;;;;10.35;8.88;;;;;;;;;;5071332;28;20197;-66
2023/01/19 03:13:24;;;;;;;12.50;9.07;;;;;;;;;;5071809;28;20209;-66
2023/01/19 03:15:54;;;;;;;14.65;9.15;;;;;;;;;;5071014;28;20193;-66
2023/01/19 03:18:21;;;;;;;9.50;8.40;;;;;;;;;;5071580;28;20209;-66
2023/01/19 03:20:50;;;;;;;11.73;9.18;;;;;;;;;;5074293;28;20204;-66
2023/01/19 03:23:17;;;;;;;15.45;8.63;;;;;;;;;;5074773;28;20234;-66
2023/01/19 03:25:44;;;;;;;11.63;8.68;;;;;;;;;;5071320;28;20262;-66
2023/01/19 03:28:11;;;;;;;11.93;8.80;;;;;;;;;;5071187;28;20221;-66
2023/01/19 03:30:44;;;;;;;12.13;8.90;;;;;;;;;;5072717;28;20205;-66
2023/01/19 03:33:12;;;;;;;12.30;8.50;;;;;;;;;;5074552;28;20519;-66
2023/01/19 03:35:41;;;;;;;12.18;8.63;;;;;;;;;;5071233;28;20280;-66
2023/01/19 03:38:11;;;;;;;11.45;8.20;;;;;;;;;;5071224;28;20600;-66
2023/01/19 03:40:38;;;;;;;11.68;8.73;;;;;;;;;;5072555;28;20243;-66
2023/01/19 03:43:05;;;;;;;12.35;9.10;;;;;;;;;;5074182;28;20275;-66
2023/01/19 03:45:33;;;;;;;10.50;8.57;;;;;;;;;;5072675;28;20234;-66
2023/01/19 03:48:00;;;;;;;13.77;9.05;;;;;;;;;;5070956;28;20197;-66
2023/01/19 03:50:28;;;;;;;12.10;9.07;;;;;;;;;;5070815;28;20500;-66
2023/01/19 03:53:01;;;;;;;12.02;9.80;;;;;;;;;;5074195;28;20299;-66
2023/01/19 03:55:27;;;;;;;14.27;9.50;;;;;;;;;;5073000;28;20200;-66
2023/01/19 03:57:54;;;;;;;12.60;10.32;;;;;;;;;;5070797;28;20267;-66
2023/01/19 04:00:20;;;;;;;12.68;9.25;;;;;;;;;;5070448;28;20201;-66
2023/01/19 04:02:46;;;;;;;11.40;9.73;;;;;;;;;;5074636;28;20197;-66
2023/01/19 04:05:14;;;;;;;10.65;9.52;;;;;;;;;;5068540;28;20571;-66
2023/01/19 04:07:40;;;;;;;10.65;9.38;;;;;;;;;;5071593;28;20204;-67
2023/01/19 04:10:11;;;;;;;11.57;8.95;;;;;;;;;;5070127;28;20201;-65
2023/01/19 04:12:37;;;;;;;13.63;9.82;;;;;;;;;;5072511;28;20558;-65
2023/01/19 04:15:04;;;;;;;16.85;12.20;;;;;;;;;;5066399;28;20204;-66
2023/01/19 04:17:31;;;;;;;16.05;10.75;;;;;;;;;;5064228;28;20437;-66
2023/01/19 04:19:57;;;;;;;12.93;10.48;;;;;;;;;;5061889;28;20223;-66
2023/01/19 04:22:25;;;;;;;14.43;10.68;;;;;;;;;;5063212;28;20205;-66
2023/01/19 04:24:51;;;;;;;13.18;10.00;;;;;;;;;;5061268;28;20205;-66
2023/01/19 04:27:18;;;;;;;13.65;10.18;;;;;;;;;;5061782;28;20224;-66
2023/01/19 04:29:44;;;;;;;14.88;9.75;;;;;;;;;;5061939;28;20263;-66
2023/01/19 04:32:10;;;;;;;10.98;9.75;;;;;;;;;;5061803;28;20205;-66
2023/01/19 04:34:36;;;;;;;15.27;10.18;;;;;;;;;;5071356;28;20251;-66
2023/01/19 04:37:03;;;;;;;12.05;10.48;;;;;;;;;;5073410;28;20196;-66
2023/01/19 04:39:30;;;;;;;11.35;9.85;;;;;;;;;;5064643;28;20410;-66
2023/01/19 04:41:57;;;;;;;14.27;10.80;;;;;;;;;;5073655;28;20223;-66
2023/01/19 04:44:23;;;;;;;12.50;10.25;;;;;;;;;;5064621;28;20201;-66
2023/01/19 04:46:50;;;;;;;14.38;10.43;;;;;;;;;;5061311;28;20224;-65
2023/01/19 04:49:16;;;;;;;13.10;9.65;;;;;;;;;;5068339;28;20224;-66
2023/01/19 04:51:43;;;;;;;15.95;10.63;;;;;;;;;;5061929;28;20216;-66
2023/01/19 04:54:09;;;;;;;15.13;10.50;;;;;;;;;;5061191;28;20212;-66
2023/01/19 04:56:37;;;;;;;12.98;10.77;;;;;;;;;;5061254;28;20209;-66
2023/01/19 04:59:03;;;;;;;14.25;10.15;;;;;;;;;;5066718;28;20243;-66
2023/01/19 05:01:29;;;;;;;13.75;10.35;;;;;;;;;;5063511;28;20232;-66
2023/01/19 05:03:58;;;;;;;13.32;10.50;;;;;;;;;;5061117;28;20243;-66
2023/01/19 05:06:24;;;;;;;11.63;9.65;;;;;;;;;;5060708;28;20224;-66
2023/01/19 05:08:50;;;;;;;12.98;10.75;;;;;;;;;;5065215;28;20201;-66
2023/01/19 05:11:17;;;;;;;12.10;9.40;;;;;;;;;;5068780;28;20242;-66
2023/01/19 05:13:44;;;;;;;11.98;9.35;;;;;;;;;;5078351;28;20200;-66
2023/01/19 05:16:12;;;;;;;11.70;9.20;;;;;;;;;;5069237;28;20247;-66
2023/01/19 05:18:39;;;;;;;11.68;9.52;;;;;;;;;;5071955;28;20212;-66
2023/01/19 05:21:05;;;;;;;10.30;9.02;;;;;;;;;;5072502;28;20207;-66
2023/01/19 05:23:32;;;;;;;10.88;9.15;;;;;;;;;;5071477;28;20264;-66
2023/01/19 05:25:59;;;;;;;12.85;10.38;;;;;;;;;;5069047;28;20239;-66
2023/01/19 05:28:25;;;;;;;12.32;10.05;;;;;;;;;;5069500;28;20477;-66
2023/01/19 05:30:53;;;;;;;14.73;11.18;;;;;;;;;;5072640;28;20208;-66
2023/01/19 05:33:20;;;;;;;12.52;10.48;;;;;;;;;;5072555;28;20234;-66
2023/01/19 05:35:46;;;;;;;10.98;9.27;;;;;;;;;;5069457;28;20194;-66
2023/01/19 05:38:12;;;;;;;13.02;9.52;;;;;;;;;;5069235;28;20215;-66
2023/01/19 05:40:39;;;;;;;12.25;9.95;;;;;;;;;;5071177;28;20201;-66
2023/01/19 05:43:05;;;;;;;15.68;10.25;;;;;;;;;;5072712;28;20250;-66
2023/01/19 05:45:31;;;;;;;10.73;9.40;;;;;;;;;;5071005;28;20208;-66
2023/01/19 05:47:59;;;;;;;14.35;9.65;;;;;;;;;;5069090;28;20204;-66
2023/01/19 05:50:25;;;;;;;12.70;9.05;;;;;;;;;;5068865;28;20254;-66
2023/01/19 05:52:52;;;;;;;13.73;9.90;;;;;;;;;;5072329;28;20201;-66
2023/01/19 05:55:19;;;;;;;12.13;9.68;;;;;;;;;;5071572;28;20242;-66
2023/01/19 05:57:45;;;;;;;10.48;8.77;;;;;;;;;;5070266;28;20423;-67
2023/01/19 06:00:12;;;;;;;11.35;9.18;;;;;;;;;;5072177;28;20259;-66
2023/01/19 06:02:38;;;;;;;10.25;8.55;;;;;;;;;;5074013;28;20201;-67
2023/01/19 06:05:06;;;;;;;11.73;9.15;;;;;;;;;;5075219;28;20215;-66
2023/01/19 06:07:33;;;;;;;11.48;9.48;;;;;;;;;;5074389;28;20224;-66
2023/01/19 06:09:59;;;;;;;32.17;15.93;;;;;;;;;;5067977;28;20425;-66
2023/01/19 06:12:25;;;;;;;37.55;16.77;;;;;;;;;;5072164;28;20200;-67
2023/01/19 06:14:51;;;;;;;22.60;11.48;;;;;;;;;;5070629;28;20237;-66
2023/01/19 06:17:19;;;;;;;23.00;12.45;;;;;;;;;;5078038;28;20250;-66
2023/01/19 06:19:45;;;;;;;36.05;14.90;;;;;;;;;;5071191;28;20414;-66
2023/01/19 06:22:13;;;;;;;52.42;18.13;;;;;;;;;;5082391;28;20207;-67
2023/01/19 06:24:39;;;;;;;21.45;11.60;;;;;;;;;;5076389;28;20205;-67
2023/01/19 06:27:05;;;;;;;69.38;21.77;;;;;;;;;;5075124;28;20220;-67
2023/01/19 06:29:31;;;;;;;67.28;22.65;;;;;;;;;;5073937;28;20208;-67
2023/01/19 06:31:59;;;;;;;73.88;25.55;;;;;;;;;;5080946;28;20540;-67
2023/01/19 06:34:27;;;;;;;50.72;21.38;;;;;;;;;;5074448;28;20201;-67
2023/01/19 06:36:53;;;;;;;43.78;18.52;;;;;;;;;;5071768;28;20193;-67
2023/01/19 06:39:21;;;;;;;37.97;16.38;;;;;;;;;;5071481;28;20467;-67
2023/01/19 06:41:47;;;;;;;28.63;14.93;;;;;;;;;;5074763;28;20197;-67
2023/01/19 06:44:14;;;;;;;23.80;13.48;;;;;;;;;;5074683;28;20201;-67
2023/01/19 06:46:40;;;;;;;21.23;12.88;;;;;;;;;;5072703;28;20232;-69
2023/01/19 06:49:06;;;;;;;17.58;12.20;;;;;;;;;;5071925;28;20424;-69
2023/01/19 06:51:33;;;;;;;24.08;12.77;;;;;;;;;;5072938;28;20208;-69
2023/01/19 06:53:59;;;;;;;19.02;12.32;;;;;;;;;;5074945;28;20262;-69
2023/01/19 06:56:27;;;;;;;17.35;11.30;;;;;;;;;;5074212;28;20200;-69
2023/01/19 06:58:54;;;;;;;15.45;10.68;;;;;;;;;;5071198;28;20239;-68
2023/01/19 07:01:20;;;;;;;13.07;9.57;;;;;;;;;;5071365;28;20217;-68
2023/01/19 07:03:46;;;;;;;14.57;9.30;;;;;;;;;;5074371;28;20197;-68
2023/01/19 07:06:12;;;;;;;14.52;9.90;;;;;;;;;;5074434;28;20201;-68
2023/01/19 07:08:39;;;;;;;15.48;10.65;;;;;;;;;;5072627;28;20513;-68
2023/01/19 07:11:07;;;;;;;11.15;9.27;;;;;;;;;;5066842;28;20243;-68
2023/01/19 07:13:34;;;;;;;10.98;9.05;;;;;;;;;;5072132;28;20200;-68
2023/01/19 07:16:03;;;;;;;13.38;9.35;;;;;;;;;;5074247;28;20418;-68
2023/01/19 07:18:30;;;;;;;12.10;10.13;;;;;;;;;;5066342;28;20223;-68
2023/01/19 07:20:57;;;;;;;12.60;8.50;;;;;;;;;;5074540;28;20526;-68
2023/01/19 07:23:23;;;;;;;16.35;8.98;;;;;;;;;;5074471;28;20250;-68
2023/01/19 07:25:49;;;;;;;10.65;8.90;;;;;;;;;;5065720;28;20196;-68
2023/01/19 07:28:16;;;;;;;12.55;9.57;;;;;;;;;;5074032;28;20243;-68
2023/01/19 07:30:44;;;;;;;12.27;9.45;;;;;;;;;;5071581;28;20511;-68
2023/01/19 07:33:11;;;;;;;11.50;9.38;;;;;;;;;;5070877;28;20205;-68
2023/01/19 07:35:37;;;;;;;12.93;9.52;;;;;;;;;;5072164;28;20201;-68
2023/01/19 07:38:04;;;;;;;13.10;8.52;;;;;;;;;;5074272;28;20197;-55
2023/01/19 07:40:30;;;;;;;13.73;9.65;;;;;;;;;;5072632;28;20377;-56
2023/01/19 07:42:56;;;;;;;15.80;10.68;;;;;;;;;;5070738;28;20267;-56
2023/01/19 07:45:23;;;;;;;13.07;9.98;;;;;;;;;;5078801;28;20425;-56
2023/01/19 07:47:50;;;;;;;17.63;9.82;;;;;;;;;;5077785;28;20513;-56
2023/01/19 07:50:20;;;;;;;14.02;10.60;;;;;;;;;;5087826;28;20241;-56
2023/01/19 07:52:46;;;;;;;16.02;10.63;;;;;;;;;;5085484;28;20238;-56
2023/01/19 07:55:12;;;;;;;17.30;10.93;;;;;;;;;;5084801;28;20204;-56
2023/01/19 07:57:38;;;;;;;14.02;10.80;;;;;;;;;;5069052;28;20213;-55
2023/01/19 08:00:05;;;;;;;15.25;10.30;;;;;;;;;;5075353;28;20209;-54
2023/01/19 08:02:32;;;;;;;14.70;10.13;;;;;;;;;;5077377;28;20204;-56
2023/01/19 08:05:00;;;;;;;12.90;10.05;;;;;;;;;;5064574;28;20268;-56
2023/01/19 08:07:26;;;;;;;15.02;10.98;;;;;;;;;;5077029;28;20248;-56
2023/01/19 08:09:52;;;;;;;14.15;10.40;;;;;;;;;;5060789;28;20209;-57
2023/01/19 08:12:19;;;;;;;17.48;11.35;;;;;;;;;;5061715;28;20437;-56
2023/01/19 08:14:45;;;;;;;16.60;10.50;;;;;;;;;;5066731;28;20790;-57
2023/01/19 08:17:12;;;;;;;15.82;10.95;;;;;;;;;;5084063;28;20226;-57
2023/01/19 08:19:39;;;;;;;15.43;10.65;;;;;;;;;;5063925;28;20219;-57
2023/01/19 08:22:06;;;;;;;18.77;11.32;;;;;;;;;;5062549;28;20224;-57
2023/01/19 08:24:32;;;;;;;14.18;10.60;;;;;;;;;;5066087;28;20212;-57
2023/01/19 08:26:59;;;;;;;14.52;10.75;;;;;;;;;;5064117;28;20274;-54
2023/01/19 08:29:25;;;;;;;16.02;10.15;;;;;;;;;;5059126;28;20213;-57
2023/01/19 08:31:54;;;;;;;13.35;9.68;;;;;;;;;;5075997;28;20201;-56
2023/01/19 08:34:20;;;;;;;13.07;9.57;;;;;;;;;;5061861;28;20312;-56
2023/01/19 08:36:47;;;;;;;12.88;9.00;;;;;;;;;;5063452;28;20204;-55
2023/01/19 08:39:14;;;;;;;12.20;8.23;;;;;;;;;;5073765;28;20216;-56
2023/01/19 08:41:40;;;;;;;10.43;8.23;;;;;;;;;;5088476;28;20207;-55
2023/01/19 08:44:07;;;;;;;10.90;7.88;;;;;;;;;;5084190;28;20272;-56
2023/01/19 08:46:33;;;;;;;11.98;7.32;;;;;;;;;;5081034;28;20216;-56
2023/01/19 08:48:59;;;;;;;9.30;7.43;;;;;;;;;;5079535;28;20204;-56
2023/01/19 08:51:25;;;;;;;10.18;7.47;;;;;;;;;;5094105;28;20245;-56
2023/01/19 08:53:52;;;;;;;12.60;7.57;;;;;;;;;;5070101;28;20267;-56
2023/01/19 08:56:19;;;;;;;10.32;7.68;;;;;;;;;;5089666;28;20211;-57
2023/01/19 08:58:45;;;;;;;8.32;7.45;;;;;;;;;;5085129;28;20197;-57
2023/01/19 09:01:13;;;;;;;9.68;7.03;;;;;;;;;;5064452;28;20624;-57
2023/01/19 09:03:40;;;;;;;10.75;7.45;;;;;;;;;;5068052;28;20410;-56
2023/01/19 09:06:06;;;;;;;10.50;6.45;;;;;;;;;;5079756;28;20438;-57
2023/01/19 09:08:33;;;;;;;11.55;6.72;;;;;;;;;;5073506;28;20217;-55
2023/01/19 09:10:59;;;;;;;12.48;6.97;;;;;;;;;;5077935;28;20419;-56
2023/01/19 09:13:27;;;;;;;8.32;7.43;;;;;;;;;;5064108;28;20255;-56
2023/01/19 09:15:53;;;;;;;7.90;6.68;;;;;;;;;;5078569;28;20545;-56
2023/01/19 09:18:20;;;;;;;12.02;8.35;;;;;;;;;;5073084;28;20205;-55
2023/01/19 09:20:47;;;;;;;11.10;7.15;;;;;;;;;;5079135;28;20246;-57
2023/01/19 09:23:15;;;;;;;6.97;6.03;;;;;;;;;;5070583;28;20216;-56
2023/01/19 09:25:41;;;;;;;8.75;7.22;;;;;;;;;;5077736;28;20215;-56
2023/01/19 09:28:09;;;;;;;8.43;6.40;;;;;;;;;;5078512;28;20443;-58
2023/01/19 09:30:38;;;;;;;9.63;6.55;;;;;;;;;;5085143;28;20254;-55
2023/01/19 09:33:06;;;;;;;7.50;6.78;;;;;;;;;;5078441;28;20204;-56
2023/01/19 09:35:32;;;;;;;9.25;6.95;;;;;;;;;;5081249;28;20401;-56
2023/01/19 09:38:00;;;;;;;10.57;7.03;;;;;;;;;;5074423;28;20434;-56
2023/01/19 09:40:28;;;;;;;10.02;7.57;;;;;;;;;;5086137;28;20211;-56
2023/01/19 09:42:56;;;;;;;11.05;7.05;;;;;;;;;;5077221;28;20205;-56
2023/01/19 09:45:26;;;;;;;7.03;6.32;;;;;;;;;;5073307;28;20464;-55
2023/01/19 09:47:54;;;;;;;9.98;7.43;;;;;;;;;;5063510;28;20282;-56
2023/01/19 09:50:24;;;;;;;9.63;7.13;;;;;;;;;;5074544;28;20238;-56
2023/01/19 09:52:55;;;;;;;9.00;6.20;;;;;;;;;;5075388;28;20213;-55
2023/01/19 09:55:22;;;;;;;7.30;6.45;;;;;;;;;;5067095;28;20208;-56
2023/01/19 09:57:49;;;;;;;8.05;7.20;;;;;;;;;;5069431;28;20205;-54
2023/01/19 10:00:16;;;;;;;8.23;7.22;;;;;;;;;;5078131;28;20282;-56
2023/01/19 10:02:43;;;;;;;8.63;7.07;;;;;;;;;;5070955;28;20544;-56
2023/01/19 10:05:21;;;;;;;8.75;6.30;;;;;;;;;;5067278;28;20209;-57
2023/01/19 10:07:57;;;;;;;10.07;6.55;;;;;;;;;;5070090;28;20228;-56
2023/01/19 10:10:25;;;;;;;7.95;6.40;;;;;;;;;;5075398;28;20244;-54
2023/01/19 10:12:59;;;;;;;6.53;5.90;;;;;;;;;;5078502;28;20209;-56
2023/01/19 10:15:31;;;;;;;8.85;5.90;;;;;;;;;;5068936;28;20212;-55
2023/01/19 10:18:04;;;;;;;7.55;6.32;;;;;;;;;;5072849;28;20235;-56
2023/01/19 10:20:35;;;;;;;6.60;6.03;;;;;;;;;;5072398;28;20554;-55
2023/01/19 10:23:01;;;;;;;8.05;5.05;;;;;;;;;;5061714;28;20239;-56
2023/01/19 10:25:28;;;;;;;7.55;5.85;;;;;;;;;;5076351;28;20430;-56
2023/01/19 10:27:54;;;;;;;5.82;5.10;;;;;;;;;;5064483;28;20306;-55
2023/01/19 10:30:22;;;;;;;10.82;5.90;;;;;;;;;;5074065;28;20213;-55
2023/01/19 10:32:52;;;;;;;6.03;4.57;;;;;;;;;;5063449;28;20220;-55
2023/01/19 10:35:23;;;;;;;5.47;4.97;;;;;;;;;;5074255;28;20216;-55
2023/01/19 10:37:51;;;;;;;6.18;5.00;;;;;;;;;;5075474;28;20493;-56
2023/01/19 10:40:20;;;;;;;5.25;4.85;;;;;;;;;;5070950;28;20323;-57
2023/01/19 10:42:46;;;;;;;5.78;4.60;;;;;;;;;;5068828;28;20213;-55
2023/01/19 10:45:14;;;;;;;4.57;4.28;;;;;;;;;;5074140;28;20269;-57
2023/01/19 10:47:42;;;;;;;6.95;4.68;;;;;;;;;;5070951;28;20256;-58
2023/01/19 10:50:22;;;;;;;5.10;4.57;;;;;;;;;;5070560;28;20213;-55
2023/01/19 10:52:51;;;;;;;4.47;4.18;;;;;;;;;;5061148;28;20419;-56
2023/01/19 10:55:24;;;;;;;6.60;4.85;;;;;;;;;;5061131;28;20213;-56
2023/01/19 10:57:51;;;;;;;8.95;4.72;;;;;;;;;;5069122;28;20257;-55
2023/01/19 11:00:29;;;;;;;5.43;4.90;;;;;;;;;;5067306;28;20212;-57
2023/01/19 11:02:55;;;;;;;6.28;4.63;;;;;;;;;;5067270;28;20208;-58
2023/01/19 11:05:22;;;;;;;6.82;4.80;;;;;;;;;;5072412;28;20216;-57
2023/01/19 11:07:49;;;;;;;8.88;5.15;;;;;;;;;;5060754;28;20535;-56
2023/01/19 11:10:23;;;;;;;6.60;4.53;;;;;;;;;;5068608;28;20283;-55
2023/01/19 11:13:01;;;;;;;5.65;4.85;;;;;;;;;;5068168;28;20205;-55
2023/01/19 11:15:30;;;;;;;6.15;5.05;;;;;;;;;;5064013;28;20451;-56
2023/01/19 11:17:56;;;;;;;6.57;4.63;;;;;;;;;;5063854;28;20221;-55
2023/01/19 11:20:24;;;;;;;6.18;4.65;;;;;;;;;;5069699;28;20262;-56
2023/01/19 11:23:03;;;;;;;6.13;4.70;;;;;;;;;;5066949;28;20213;-56
2023/01/19 11:25:32;;;;;;;8.00;4.68;;;;;;;;;;5071615;28;20212;-56
2023/01/19 11:27:58;;;;;;;5.53;4.20;;;;;;;;;;5064173;28;20630;-58
2023/01/19 11:30:25;;;;;;;4.97;4.47;;;;;;;;;;5068182;28;20217;-58
2023/01/19 11:32:51;;;;;;;5.65;3.55;;;;;;;;;;5073368;28;20216;-58
2023/01/19 11:35:35;;;;;;;4.97;4.38;;;;;;;;;;5077246;28;20265;-58
2023/01/19 11:38:16;;;;;;;6.05;4.35;;;;;;;;;;5060825;28;20205;-57
2023/01/19 11:40:46;;;;;;;4.55;4.25;;;;;;;;;;5069385;28;20212;-58
2023/01/19 11:43:13;;;;;;;6.05;4.10;;;;;;;;;;5075699;28;20401;-58
2023/01/19 11:45:39;;;;;;;5.00;4.50;;;;;;;;;;5070434;28;20440;-58
2023/01/19 11:48:07;;;;;;;6.55;4.18;;;;;;;;;;5069386;28;20317;-58
2023/01/19 11:50:34;;;;;;;4.40;4.03;;;;;;;;;;5068457;28;20323;-57
2023/01/19 11:53:04;;;;;;;4.43;4.13;;;;;;;;;;5066751;28;20209;-56
2023/01/19 11:55:35;;;;;;;5.45;4.50;;;;;;;;;;5078702;28;20216;-58
2023/01/19 11:58:03;;;;;;;4.45;4.07;;;;;;;;;;5080204;28;20286;-56
2023/01/19 12:00:34;;;;;;;5.47;3.97;;;;;;;;;;5070465;28;20258;-57
2023/01/19 12:03:02;;;;;;;6.13;4.55;;;;;;;;;;5073445;28;20208;-55
2023/01/19 12:05:31;;;;;;;6.25;4.38;;;;;;;;;;5071479;28;20258;-57
2023/01/19 12:08:00;;;;;;;8.18;4.10;;;;;;;;;;5064724;28;20233;-57
2023/01/19 12:10:27;;;;;;;7.35;4.45;;;;;;;;;;5073159;28;20250;-56
2023/01/19 12:12:54;;;;;;;5.63;4.82;;;;;;;;;;5059983;28;20247;-57
2023/01/19 12:15:25;;;;;;;4.43;4.13;;;;;;;;;;5069256;28;20422;-56
2023/01/19 12:17:53;;;;;;;9.77;4.38;;;;;;;;;;5065764;28;20515;-54
2023/01/19 12:20:24;;;;;;;5.07;3.75;;;;;;;;;;5072429;28;20216;-57
2023/01/19 12:22:52;;;;;;;5.57;3.90;;;;;;;;;;5074687;28;20265;-57
2023/01/19 12:25:20;;;;;;;4.22;3.92;;;;;;;;;;5057921;28;20217;-57
2023/01/19 12:27:48;;;;;;;4.47;3.78;;;;;;;;;;5062995;28;20274;-56
2023/01/19 12:30:16;;;;;;;6.88;4.05;;;;;;;;;;5069645;28;20216;-57
2023/01/19 12:32:44;;;;;;;5.78;4.03;;;;;;;;;;5078760;28;20231;-57
2023/01/19 12:35:25;;;;;;;7.68;4.82;;;;;;;;;;5074676;28;20219;-57
2023/01/19 12:37:51;;;;;;;4.00;3.70;;;;;;;;;;5067161;28;20258;-57
2023/01/19 12:40:21;;;;;;;5.65;4.13;;;;;;;;;;5079665;28;20216;-56
2023/01/19 12:42:48;;;;;;;3.85;3.58;;;;;;;;;;5069128;28;20215;-58
2023/01/19 12:45:16;;;;;;;6.85;3.88;;;;;;;;;;5074649;28;20262;-58
2023/01/19 12:47:51;;;;;;;4.85;4.40;;;;;;;;;;5074068;28;20216;-57
2023/01/19 12:50:19;;;;;;;5.63;4.20;;;;;;;;;;5079021;28;20430;-58
2023/01/19 12:52:50;;;;;;;5.07;4.22;;;;;;;;;;5075927;28;20216;-57
2023/01/19 12:55:20;;;;;;;4.35;3.95;;;;;;;;;;5074321;28;20453;-58
2023/01/19 12:57:50;;;;;;;4.40;4.00;;;;;;;;;;5071928;28;20452;-59
2023/01/19 13:00:28;;;;;;;5.30;3.95;;;;;;;;;;5069859;28;20436;-58
2023/01/19 13:02:57;;;;;;;6.32;4.50;;;;;;;;;;5060682;28;20265;-57
2023/01/19 13:05:24;;;;;;;5.30;4.80;;;;;;;;;;5074404;28;20217;-59
2023/01/19 13:08:10;;;;;;;6.78;5.05;;;;;;;;;;5071216;28;20562;-57
2023/01/19 13:10:55;;;;;;;4.75;4.20;;;;;;;;;;5076695;28;20242;-57
2023/01/19 13:13:22;;;;;;;5.97;3.97;;;;;;;;;;5074377;28;20215;-58
2023/01/19 13:15:49;;;;;;;5.13;4.38;;;;;;;;;;5065754;28;20251;-57
2023/01/19 13:18:18;;;;;;;9.25;3.90;;;;;;;;;;5066259;28;20230;-56
2023/01/19 13:20:46;;;;;;;3.63;3.42;;;;;;;;;;5072606;28;20516;-57
2023/01/19 13:23:20;;;;;;;4.03;3.72;;;;;;;;;;5072939;28;20216;-56
2023/01/19 13:26:02;;;;;;;4.70;4.30;;;;;;;;;;5071200;28;20208;-57
2023/01/19 13:28:31;;;;;;;4.35;3.88;;;;;;;;;;5071784;28;20235;-56
2023/01/19 13:31:01;;;;;;;4.68;4.20;;;;;;;;;;5068533;28;20283;-57
2023/01/19 13:33:31;;;;;;;5.13;4.35;;;;;;;;;;5075800;28;20219;-55
2023/01/19 13:35:58;;;;;;;4.40;4.10;;;;;;;;;;5075445;28;20413;-55
2023/01/19 13:38:25;;;;;;;5.88;4.25;;;;;;;;;;5073726;28;20208;-55
2023/01/19 13:40:53;;;;;;;5.75;4.13;;;;;;;;;;5067536;28;20213;-55
2023/01/19 13:43:21;;;;;;;6.18;4.40;;;;;;;;;;5068811;28;20213;-56
2023/01/19 13:45:49;;;;;;;4.80;4.40;;;;;;;;;;5071460;28;20212;-57
2023/01/19 13:48:17;;;;;;;6.22;4.15;;;;;;;;;;5059290;28;20528;-56
2023/01/19 13:50:56;;;;;;;5.82;4.22;;;;;;;;;;5073876;28;20218;-57
2023/01/19 13:53:23;;;;;;;5.47;4.30;;;;;;;;;;5066623;28;20212;-55
2023/01/19 13:56:04;;;;;;;4.55;4.15;;;;;;;;;;5070662;28;20205;-57
2023/01/19 13:58:31;;;;;;;4.68;4.28;;;;;;;;;;5074817;28;20719;-57
2023/01/19 14:00:57;;;;;;;6.72;4.00;;;;;;;;;;5067405;28;20208;-57
2023/01/19 14:03:24;;;;;;;4.95;4.20;;;;;;;;;;5077203;28;20215;-57
2023/01/19 14:05:52;;;;;;;6.70;4.47;;;;;;;;;;5070219;28;20212;-56
2023/01/19 14:08:19;;;;;;;8.40;4.78;;;;;;;;;;5080748;28;20220;-57
2023/01/19 14:10:46;;;;;;;5.78;4.82;;;;;;;;;;5063289;28;20247;-57
2023/01/19 14:13:14;;;;;;;7.90;5.22;;;;;;;;;;5068491;28;20416;-58
2023/01/19 14:15:40;;;;;;;4.68;4.25;;;;;;;;;;5071105;28;20212;-58
2023/01/19 14:18:08;;;;;;;6.03;4.78;;;;;;;;;;5060717;28;20250;-58
2023/01/19 14:20:35;;;;;;;10.38;5.45;;;;;;;;;;5076371;28;20216;-58
2023/01/19 14:23:03;;;;;;;7.35;5.25;;;;;;;;;;5071878;28;20279;-57
2023/01/19 14:25:30;;;;;;;5.13;4.60;;;;;;;;;;5066072;28;20212;-57
2023/01/19 14:28:15;;;;;;;5.00;4.60;;;;;;;;;;5081125;28;20232;-55
2023/01/19 14:30:52;;;;;;;6.97;5.55;;;;;;;;;;5072139;28;20207;-57
2023/01/19 14:33:40;;;;;;;7.38;4.80;;;;;;;;;;5071229;28;20212;-56
2023/01/19 14:36:10;;;;;;;5.88;5.28;;;;;;;;;;5080782;28;20212;-56
2023/01/19 14:38:38;;;;;;;5.70;5.10;;;;;;;;;;5073732;28;20520;-57
2023/01/19 14:41:04;;;;;;;7.50;4.97;;;;;;;;;;5078145;28;20209;-57
2023/01/19 14:43:31;;;;;;;6.47;5.32;;;;;;;;;;5067435;28;20213;-56
2023/01/19 14:45:57;;;;;;;5.63;5.13;;;;;;;;;;5075584;28;20250;-56
2023/01/19 14:48:28;;;;;;;8.68;4.82;;;;;;;;;;5085359;28;20213;-56
2023/01/19 14:50:59;;;;;;;6.78;5.28;;;;;;;;;;5083269;28;20238;-57
2023/01/19 14:53:27;;;;;;;5.55;4.95;;;;;;;;;;5061036;28;20477;-55